Terminal Aerodrome Forecast
Issued by NWS

Current Version | Previous Version | Text Only | Print | Product List | Glossary On
Versions: 1 2 3 4 5 6 7 8 9 10 11 12 13 14
966
FTUS44 KTSA 241720
TAFFYV
TAF
KFYV 241720Z 2418/2518 19010KT P6SM VCTS SCT040CB
      TEMPO 2418/2421 2SM TSRA BKN020CB
     FM242100 16008KT P6SM BKN250
     FM251200 18006KT P6SM OVC025
     FM251500 19013KT P6SM BKN050=

USA.gov is the U.S. government's official web portal to all federal, state and local government web resources and services.